Time;durP1;ratioP1;P1;durP2;ratioP2;P2;SDS_P1;SDS_P2;PMS_P1;PMS_P2;Temp;Humidity;BMP_temperature;BMP_pressure;BME280_temperature;BME280_humidity;BME280_pressure;Samples;Min_cycle;Max_cycle;Signal;HPM_P1;HPM_P2
2021/09/28 00:00:06;;;;;;;10.57;2.17;;;;;;;11.70;85.54;102150.00;5059337;28;20027;-35
2021/09/28 00:02:31;;;;;;;11.55;2.45;;;;;;;11.65;85.70;102145.19;5058882;28;20024;-35
2021/09/28 00:04:56;;;;;;;9.70;1.97;;;;;;;11.65;86.26;102147.91;5059394;28;20025;-35
2021/09/28 00:07:21;;;;;;;9.10;2.07;;;;;;;11.66;85.87;102162.28;5059205;28;20021;-35
2021/09/28 00:09:47;;;;;;;11.13;2.13;;;;;;;11.68;86.05;102154.81;5059272;28;20029;-35
2021/09/28 00:12:12;;;;;;;9.87;2.37;;;;;;;11.58;86.27;102147.91;5059370;28;20024;-35
2021/09/28 00:14:38;;;;;;;10.70;2.10;;;;;;;11.56;84.92;102159.97;5058874;28;20096;-35
2021/09/28 00:17:03;;;;;;;7.75;1.70;;;;;;;11.59;86.46;102163.13;5059408;28;20274;-35
2021/09/28 00:19:29;;;;;;;6.50;2.08;;;;;;;11.49;85.68;102157.28;5058937;28;20021;-35
2021/09/28 00:21:54;;;;;;;7.87;1.60;;;;;;;11.56;86.12;102168.94;5058848;28;20036;-35
2021/09/28 00:24:19;;;;;;;15.17;2.67;;;;;;;11.55;87.06;102174.56;5058842;28;20029;-35
2021/09/28 00:26:45;;;;;;;10.40;1.97;;;;;;;11.60;86.52;102164.78;5058581;28;20060;-35
2021/09/28 00:29:10;;;;;;;8.83;1.73;;;;;;;11.53;86.45;102169.38;5059273;28;20044;-35
2021/09/28 00:31:35;;;;;;;6.87;1.60;;;;;;;11.39;84.97;102156.81;5058829;28;20127;-35
2021/09/28 00:34:00;;;;;;;10.50;2.30;;;;;;;11.34;86.67;102154.72;5058794;28;20023;-35
2021/09/28 00:36:26;;;;;;;10.07;2.03;;;;;;;11.29;86.65;102150.97;5055369;28;20025;-35
2021/09/28 00:38:52;;;;;;;13.05;1.95;;;;;;;11.49;86.98;102178.09;5055225;28;20070;-35
2021/09/28 00:41:17;;;;;;;9.23;2.13;;;;;;;11.35;86.64;102172.66;5055971;28;20108;-35
2021/09/28 00:43:44;;;;;;;10.50;1.90;;;;;;;11.41;86.55;102187.25;5055525;28;20085;-35
2021/09/28 00:46:10;;;;;;;12.23;2.50;;;;;;;11.44;87.05;102178.72;5056183;28;20368;-35
2021/09/28 00:48:35;;;;;;;10.50;2.13;;;;;;;11.45;86.79;102177.66;5055661;28;20022;-35
2021/09/28 00:51:00;;;;;;;10.03;2.07;;;;;;;11.42;86.91;102180.81;5056204;28;20045;-35
2021/09/28 00:53:26;;;;;;;9.50;1.90;;;;;;;11.37;86.88;102167.03;5055380;28;20025;-35
2021/09/28 00:55:51;;;;;;;8.30;1.83;;;;;;;11.30;86.46;102142.63;5054977;28;20028;-35
2021/09/28 00:58:17;;;;;;;9.27;2.67;;;;;;;11.40;86.64;102179.31;5056004;28;20024;-35
2021/09/28 01:00:42;;;;;;;10.57;1.83;;;;;;;11.44;87.16;102181.44;5053627;28;20099;-35
2021/09/28 01:03:09;;;;;;;11.60;2.27;;;;;;;11.33;87.32;102190.16;5055474;28;20032;-35
2021/09/28 01:05:35;;;;;;;13.73;2.13;;;;;;;11.29;87.72;102180.75;5055297;28;20025;-35
2021/09/28 01:08:00;;;;;;;9.80;2.70;;;;;;;11.22;87.19;102178.00;5055575;28;20032;-35
2021/09/28 01:10:26;;;;;;;8.10;2.03;;;;;;;11.15;87.40;102166.34;5054997;28;20039;-35
2021/09/28 01:12:51;;;;;;;10.57;2.13;;;;;;;11.23;87.56;102187.81;5055205;28;20033;-35
2021/09/28 01:15:17;;;;;;;8.65;1.85;;;;;;;11.18;87.59;102184.06;5055385;28;20017;-35
2021/09/28 01:17:44;;;;;;;10.35;2.45;;;;;;;11.18;87.70;102175.94;5055157;28;20465;-35
2021/09/28 01:20:10;;;;;;;8.70;1.80;;;;;;;11.16;87.79;102168.00;5055462;28;20189;-35
2021/09/28 01:22:35;;;;;;;9.45;1.70;;;;;;;11.14;87.46;102164.66;5055058;28;20108;-35
2021/09/28 01:25:00;;;;;;;11.37;1.87;;;;;;;11.14;87.27;102185.50;5054488;28;20031;-35
2021/09/28 01:27:26;;;;;;;12.90;2.37;;;;;;;11.20;87.62;102187.38;5055083;28;20330;-35
2021/09/28 01:29:51;;;;;;;8.20;1.93;;;;;;;11.05;87.40;102182.94;5054706;28;20347;-35
2021/09/28 01:32:16;;;;;;;10.90;2.23;;;;;;;11.08;87.83;102179.03;5054610;28;20338;-35
2021/09/28 01:34:42;;;;;;;8.73;1.67;;;;;;;11.07;87.01;102194.41;5054611;28;20059;-35
2021/09/28 01:37:09;;;;;;;9.40;2.10;;;;;;;11.17;87.76;102198.59;5054764;28;20032;-35
2021/09/28 01:39:35;;;;;;;9.35;2.13;;;;;;;11.10;88.15;102193.19;5054445;28;20028;-35
2021/09/28 01:42:00;;;;;;;8.43;2.25;;;;;;;11.00;87.61;102171.91;5054567;28;20410;-35
2021/09/28 01:44:27;;;;;;;7.25;1.45;;;;;;;11.17;87.81;102195.91;5054181;28;20047;-35
2021/09/28 01:46:53;;;;;;;7.57;2.28;;;;;;;11.10;87.94;102195.88;5053255;28;20020;-35
2021/09/28 01:49:20;;;;;;;10.35;1.90;;;;;;;11.04;87.68;102197.53;5054313;28;20021;-35
2021/09/28 01:51:45;;;;;;;8.23;2.17;;;;;;;10.98;88.28;102181.25;5054228;28;20150;-35
2021/09/28 01:54:12;;;;;;;9.65;2.20;;;;;;;11.01;88.49;102197.91;5054216;28;20096;-35
2021/09/28 01:56:37;;;;;;;;;;;;;;;11.12;87.33;102198.38;5054655;28;20453;-35
2021/09/28 01:59:05;;;;;;;12.25;2.45;;;;;;;11.02;88.13;102191.47;5054589;28;19946;-35
2021/09/28 02:01:30;;;;;;;8.52;1.65;;;;;;;10.93;89.23;102184.56;5054248;28;20430;-35
2021/09/28 02:03:56;;;;;;;10.13;2.10;;;;;;;10.89;88.51;102204.94;5054051;28;20031;-35
2021/09/28 02:06:22;;;;;;;10.63;1.83;;;;;;;10.71;88.25;102164.03;5053959;28;20313;-35
2021/09/28 02:08:49;;;;;;;7.97;1.75;;;;;;;10.79;88.40;102174.72;5054661;28;20092;-35
2021/09/28 02:11:15;;;;;;;14.93;2.22;;;;;;;10.93;88.83;102197.25;5054103;28;20028;-35
2021/09/28 02:13:41;;;;;;;14.60;3.00;;;;;;;10.82;88.56;102199.47;5053571;28;20021;-35
2021/09/28 02:16:07;;;;;;;10.50;2.17;;;;;;;10.91;88.82;102205.56;5053817;28;20411;-35
2021/09/28 02:18:32;;;;;;;8.57;2.40;;;;;;;10.92;88.52;102199.13;5053742;28;20312;-35
2021/09/28 02:20:58;;;;;;;11.70;2.75;;;;;;;10.80;88.46;102185.34;5053832;28;20041;-35
2021/09/28 02:23:23;;;;;;;10.27;1.87;;;;;;;10.82;88.84;102185.94;5053681;28;20033;-35
2021/09/28 02:25:48;;;;;;;11.93;2.07;;;;;;;10.88;87.71;102208.66;5053566;28;20093;-35
2021/09/28 02:28:14;;;;;;;8.87;1.77;;;;;;;10.93;87.93;102210.78;5054330;28;20032;-36
2021/09/28 02:30:40;;;;;;;11.53;2.23;;;;;;;10.91;88.00;102218.28;5053249;28;20028;-35
2021/09/28 02:33:05;;;;;;;9.63;2.10;;;;;;;10.88;88.43;102210.53;5053512;28;20106;-35
2021/09/28 02:35:31;;;;;;;11.52;1.90;;;;;;;10.75;88.25;102211.31;5053388;28;20104;-35
2021/09/28 02:37:56;;;;;;;10.20;2.08;;;;;;;10.72;88.56;102214.41;5053776;28;20021;-35
2021/09/28 02:40:23;;;;;;;10.48;2.10;;;;;;;10.68;89.10;102203.13;5053582;28;20025;-35
2021/09/28 02:42:49;;;;;;;5.90;2.08;;;;;;;10.66;88.88;102207.09;5053558;28;20025;-35
2021/09/28 02:45:15;;;;;;;10.95;2.20;;;;;;;10.74;89.29;102206.94;5052916;28;20029;-35
2021/09/28 02:47:40;;;;;;;8.75;2.00;;;;;;;10.66;88.65;102209.81;5053656;28;20040;-36
2021/09/28 02:50:07;;;;;;;11.03;2.57;;;;;;;10.65;89.35;102218.97;5053235;28;20016;-35
2021/09/28 02:52:33;;;;;;;8.30;2.00;;;;;;;10.64;89.22;102217.25;5053049;28;20028;-35
2021/09/28 02:54:58;;;;;;;9.27;2.43;;;;;;;10.64;88.81;102225.38;5053149;28;20048;-35
2021/09/28 02:57:23;;;;;;;18.50;2.50;;;;;;;10.56;89.08;102213.69;5052725;28;20082;-35
2021/09/28 02:59:49;;;;;;;11.80;1.90;;;;;;;10.63;89.34;102226.41;5052855;28;20024;-35
2021/09/28 03:02:14;;;;;;;8.13;2.30;;;;;;;10.57;89.24;102226.19;5053770;28;20129;-35
2021/09/28 03:04:39;;;;;;;9.87;1.73;;;;;;;10.54;88.79;102228.44;5052973;28;20028;-35
2021/09/28 03:07:05;;;;;;;6.80;1.80;;;;;;;10.52;88.66;102231.34;5053538;28;20050;-35
2021/09/28 03:09:30;;;;;;;9.60;2.37;;;;;;;10.56;89.22;102231.78;5052574;28;20475;-35
2021/09/28 03:11:56;;;;;;;7.22;1.75;;;;;;;10.60;88.89;102238.47;5053133;28;20028;-35
2021/09/28 03:14:22;;;;;;;6.93;2.10;;;;;;;10.55;89.09;102239.06;5052787;28;20035;-35
2021/09/28 03:16:48;;;;;;;10.73;1.75;;;;;;;10.54;89.28;102234.69;5053252;28;20028;-35
2021/09/28 03:19:15;;;;;;;13.15;2.38;;;;;;;10.53;88.66;102227.59;5053056;28;20017;-35
2021/09/28 03:21:41;;;;;;;6.55;1.60;;;;;;;10.58;89.92;102233.25;5052440;28;20037;-35
2021/09/28 03:24:06;;;;;;;8.18;1.60;;;;;;;10.62;89.30;102225.59;5052989;28;20020;-35
2021/09/28 03:26:31;;;;;;;9.37;1.90;;;;;;;10.54;89.27;102233.84;5053050;28;20017;-35
2021/09/28 03:28:57;;;;;;;7.57;1.80;;;;;;;10.40;89.02;102222.13;5053125;28;20433;-35
2021/09/28 03:31:22;;;;;;;9.47;2.03;;;;;;;10.46;89.25;102234.84;5052979;28;20053;-35
2021/09/28 03:33:47;;;;;;;10.23;2.03;;;;;;;10.46;89.19;102237.53;5053103;28;20048;-35
2021/09/28 03:36:13;;;;;;;7.53;1.50;;;;;;;10.44;89.10;102239.63;5053087;28;20021;-35
2021/09/28 03:38:38;;;;;;;8.60;1.77;;;;;;;10.39;89.07;102244.75;5052350;28;20112;-35
2021/09/28 03:41:03;;;;;;;8.97;2.43;;;;;;;10.31;89.24;102234.94;5052540;28;20100;-35
2021/09/28 03:43:29;;;;;;;9.90;2.17;;;;;;;10.41;89.20;102234.59;5052491;28;20060;-35
2021/09/28 03:45:54;;;;;;;9.67;2.43;;;;;;;10.26;89.55;102204.94;5053100;28;20025;-35
2021/09/28 03:48:21;;;;;;;7.75;1.88;;;;;;;10.24;89.47;102211.56;5052399;28;20411;-35
2021/09/28 03:50:47;;;;;;;11.27;2.50;;;;;;;10.39;89.64;102231.22;5052691;28;20517;-35
2021/09/28 03:53:12;;;;;;;;;;;;;;;10.51;88.65;102234.25;5052625;28;20492;-35
2021/09/28 03:55:38;;;;;;;9.07;1.70;;;;;;;10.42;89.26;102238.97;5052819;28;19905;-35
2021/09/28 03:58:04;;;;;;;6.80;1.37;;;;;;;10.45;89.04;102243.16;5052968;28;20021;-35
2021/09/28 04:00:30;;;;;;;;;;;;;;;10.51;88.49;102239.66;5053558;28;20107;-35
2021/09/28 04:02:55;;;;;;;11.23;1.75;;;;;;;10.41;89.29;102241.88;5052494;28;19915;-35
2021/09/28 04:05:21;;;;;;;11.83;2.43;;;;;;;10.44;89.52;102250.44;5052420;28;20441;-35
2021/09/28 04:07:46;;;;;;;7.87;1.93;;;;;;;10.37;89.35;102246.81;5052593;28;20452;-35
2021/09/28 04:10:11;;;;;;;12.50;2.27;;;;;;;10.32;89.35;102241.16;5053414;28;20475;-35
2021/09/28 04:12:37;;;;;;;7.23;1.73;;;;;;;10.29;89.76;102244.25;5055867;28;20052;-35
2021/09/28 04:15:04;;;;;;;15.75;3.22;;;;;;;10.15;89.44;102232.47;5056068;28;20067;-35
2021/09/28 04:17:30;;;;;;;12.02;3.08;;;;;;;10.21;89.32;102250.63;5055940;28;20025;-35
2021/09/28 04:19:56;;;;;;;8.40;2.40;;;;;;;10.24;89.97;102250.25;5055616;28;20100;-35
2021/09/28 04:22:22;;;;;;;9.82;2.25;;;;;;;10.25;89.82;102256.50;5055833;28;20345;-35
2021/09/28 04:24:49;;;;;;;11.63;1.77;;;;;;;10.22;89.67;102249.59;5055220;28;20025;-35
2021/09/28 04:27:15;;;;;;;9.05;1.98;;;;;;;10.18;89.75;102260.97;5055527;28;20043;-35
2021/09/28 04:29:40;;;;;;;10.45;1.98;;;;;;;10.17;89.65;102248.50;5055733;28;20029;-35
2021/09/28 04:32:06;;;;;;;7.70;2.43;;;;;;;10.22;90.05;102256.84;5056223;28;20082;-35
2021/09/28 04:34:31;;;;;;;8.40;2.20;;;;;;;10.20;89.97;102250.78;5055653;28;20033;-35
2021/09/28 04:36:57;;;;;;;11.10;1.60;;;;;;;10.14;89.56;102259.69;5056194;28;20025;-35
2021/09/28 04:39:22;;;;;;;7.87;2.20;;;;;;;10.06;89.44;102255.25;5055822;28;20334;-35
2021/09/28 04:41:48;;;;;;;6.55;2.00;;;;;;;10.07;89.79;102257.75;5056183;28;20468;-35
2021/09/28 04:44:13;;;;;;;12.52;2.70;;;;;;;9.93;90.12;102247.84;5055465;28;20460;-35
2021/09/28 04:46:39;;;;;;;7.18;1.63;;;;;;;10.07;90.83;102263.16;5055803;28;20181;-35
2021/09/28 04:49:04;;;;;;;8.50;2.10;;;;;;;10.03;90.20;102259.16;5055156;28;20461;-35
2021/09/28 04:51:30;;;;;;;10.35;2.70;;;;;;;10.00;90.08;102270.38;5055388;28;20083;-35
2021/09/28 04:53:55;;;;;;;10.57;2.13;;;;;;;9.97;90.07;102262.66;5055369;28;20108;-35
2021/09/28 04:56:20;;;;;;;6.43;1.70;;;;;;;9.90;89.25;102267.13;5055590;28;20027;-35
2021/09/28 04:58:47;;;;;;;10.57;2.20;;;;;;;9.90;90.01;102272.53;5055599;28;20024;-35
2021/09/28 05:01:13;;;;;;;9.90;2.25;;;;;;;9.86;90.39;102257.75;5055225;28;20074;-35
2021/09/28 05:03:38;;;;;;;8.48;2.30;;;;;;;9.79;90.23;102256.84;5055341;28;20103;-35
2021/09/28 05:06:03;;;;;;;6.40;2.20;;;;;;;9.79;90.12;102270.34;5055602;28;20021;-35
2021/09/28 05:08:29;;;;;;;8.97;2.57;;;;;;;9.81;90.33;102265.59;5055146;28;20028;-35
2021/09/28 05:10:54;;;;;;;7.83;1.80;;;;;;;9.79;90.52;102262.25;5054948;28;20281;-35
2021/09/28 05:13:19;;;;;;;6.20;2.07;;;;;;;9.75;90.05;102271.75;5055145;28;20039;-35
2021/09/28 05:15:45;;;;;;;13.17;2.47;;;;;;;9.67;90.98;102261.91;5055124;28;20363;-34
2021/09/28 05:18:11;;;;;;;9.60;1.90;;;;;;;9.69;90.78;102251.75;5055232;28;20028;-35
2021/09/28 05:20:36;;;;;;;9.88;1.90;;;;;;;9.68;89.82;102276.25;5054787;28;20287;-35
2021/09/28 05:23:03;;;;;;;7.07;2.00;;;;;;;9.64;89.92;102266.84;5055038;28;20364;-35
2021/09/28 05:25:28;;;;;;;10.57;1.95;;;;;;;9.64;90.67;102267.69;5054930;28;20272;-35
2021/09/28 05:27:54;;;;;;;7.60;1.90;;;;;;;9.49;89.66;102254.22;5055249;28;20071;-35
2021/09/28 05:30:20;;;;;;;12.13;2.35;;;;;;;9.54;90.04;102276.09;5054787;28;20020;-35
2021/09/28 05:32:45;;;;;;;;;;;;;;;9.70;89.51;102272.31;5055204;28;20016;-35
2021/09/28 05:35:11;;;;;;;6.17;1.90;;;;;;;9.51;90.76;102271.06;5054945;28;20255;-35
2021/09/28 05:37:37;;;;;;;7.95;1.85;;;;;;;9.42;89.61;102280.31;5055060;28;20522;-35
2021/09/28 05:40:04;;;;;;;5.00;1.65;;;;;;;9.36;89.38;102269.41;5054605;28;20024;-35
2021/09/28 05:42:29;;;;;;;8.93;2.50;;;;;;;9.44;90.36;102278.25;5055173;28;20107;-35
2021/09/28 05:44:55;;;;;;;8.05;2.03;;;;;;;9.46;89.66;102278.88;5054510;28;20083;-35
2021/09/28 05:47:20;;;;;;;6.73;2.33;;;;;;;9.34;89.32;102269.59;5054760;28;20021;-35
2021/09/28 05:49:45;;;;;;;10.03;2.27;;;;;;;9.52;91.79;102278.16;5053996;28;20382;-35
2021/09/28 05:52:14;;;;;;;6.03;1.70;;;;;;;9.42;90.52;102269.53;5054280;28;20048;-35
2021/09/28 05:54:48;;;;;;;7.47;1.92;;;;;;;9.47;89.70;102283.28;5053924;28;20070;-35
2021/09/28 05:57:21;;;;;;;12.25;2.53;;;;;;;9.62;90.91;102293.22;5053950;28;20021;-35
2021/09/28 05:59:47;;;;;;;10.75;2.35;;;;;;;9.60;91.31;102293.41;5053823;28;20029;-35
2021/09/28 06:02:14;;;;;;;;;;;;;;;9.72;90.33;102297.28;5054430;28;20032;-35
2021/09/28 06:04:40;;;;;;;8.63;2.30;;;;;;;9.65;90.28;102292.84;5053835;28;20400;-35
2021/09/28 06:07:06;;;;;;;;;;;;;;;9.78;90.03;102296.53;5054728;28;20029;-35
2021/09/28 06:09:35;;;;;;;8.85;2.22;;;;;;;9.77;90.87;102299.44;5054057;28;19916;-35
2021/09/28 06:12:01;;;;;;;9.10;3.13;;;;;;;9.71;90.72;102298.34;5053840;28;20039;-35
2021/09/28 06:14:26;;;;;;;11.80;2.38;;;;;;;9.75;91.01;102293.38;5053789;28;20017;-35
2021/09/28 06:16:52;;;;;;;8.63;2.30;;;;;;;9.65;90.55;102282.88;5054235;28;20047;-34
2021/09/28 06:19:17;;;;;;;13.63;3.67;;;;;;;9.69;91.47;102284.16;5053745;28;20024;-35
2021/09/28 06:21:43;;;;;;;9.40;3.20;;;;;;;9.64;91.30;102272.25;5054517;28;20050;-35
2021/09/28 06:24:08;;;;;;;7.97;2.57;;;;;;;9.77;92.12;102286.75;5053292;28;20025;-34
2021/09/28 06:26:33;;;;;;;9.70;3.00;;;;;;;9.89;91.31;102295.19;5053412;28;20045;-35
2021/09/28 06:28:58;;;;;;;14.87;3.20;;;;;;;9.95;92.03;102293.59;5054060;28;20061;-35
2021/09/28 06:31:24;;;;;;;7.40;2.70;;;;;;;10.09;91.84;102306.22;5053841;28;20017;-35
2021/09/28 06:33:49;;;;;;;15.13;3.37;;;;;;;9.97;91.08;102292.38;5053077;28;20029;-35
2021/09/28 06:36:15;;;;;;;11.97;3.73;;;;;;;10.04;90.97;102298.69;5053526;28;20036;-35
2021/09/28 06:38:40;;;;;;;7.20;2.33;;;;;;;10.13;90.67;102303.97;5053720;28;20017;-35
2021/09/28 06:41:05;;;;;;;10.63;2.70;;;;;;;10.23;91.27;102301.78;5054080;28;20024;-35
2021/09/28 06:43:31;;;;;;;7.33;3.00;;;;;;;10.30;91.38;102311.69;5052933;28;20071;-35
2021/09/28 06:45:58;;;;;;;11.50;2.90;;;;;;;10.27;90.32;102303.09;5051964;28;20033;-35
2021/09/28 06:48:23;;;;;;;7.05;2.72;;;;;;;10.25;91.09;102299.78;5053094;28;20036;-35
2021/09/28 06:50:48;;;;;;;12.00;2.90;;;;;;;10.40;90.98;102307.81;5053032;28;20458;-35
2021/09/28 06:53:14;;;;;;;9.03;2.83;;;;;;;10.23;90.26;102275.56;5053725;28;20025;-35
2021/09/28 06:55:39;;;;;;;11.10;3.00;;;;;;;10.42;88.68;102305.75;5053235;28;20028;-35
2021/09/28 06:58:05;;;;;;;13.63;4.47;;;;;;;10.50;89.92;102311.03;5053345;28;20036;-35
2021/09/28 07:00:32;;;;;;;8.07;2.38;;;;;;;10.53;90.55;102302.50;5053043;28;20017;-35
2021/09/28 07:02:57;;;;;;;7.60;2.88;;;;;;;10.62;90.14;102312.16;5052805;28;20527;-35
2021/09/28 07:05:22;;;;;;;10.70;3.40;;;;;;;10.60;89.77;102299.88;5052912;28;20021;-35
2021/09/28 07:07:48;;;;;;;10.47;2.60;;;;;;;10.67;89.12;102306.16;5053151;28;20113;-35
2021/09/28 07:10:13;;;;;;;10.90;3.30;;;;;;;10.80;88.73;102309.81;5053041;28;20476;-35
2021/09/28 07:12:39;;;;;;;9.32;3.22;;;;;;;10.91;88.87;102304.88;5053278;28;20116;-34
2021/09/28 07:15:05;;;;;;;10.53;3.07;;;;;;;10.92;88.18;102299.25;5052769;28;20025;-35
2021/09/28 07:17:31;;;;;;;8.73;3.22;;;;;;;11.04;88.42;102305.81;5053026;28;20024;-35
2021/09/28 07:19:56;;;;;;;7.93;2.92;;;;;;;11.14;88.31;102315.44;5052470;28;20040;-35
2021/09/28 07:22:22;;;;;;;10.47;2.83;;;;;;;11.22;87.77;102317.97;5053173;28;20062;-35
2021/09/28 07:24:47;;;;;;;11.37;2.80;;;;;;;11.32;87.72;102319.31;5052636;28;20025;-35
2021/09/28 07:27:12;;;;;;;9.00;2.87;;;;;;;11.35;87.47;102312.63;5053142;28;20258;-35
2021/09/28 07:29:38;;;;;;;12.00;3.53;;;;;;;11.44;86.93;102316.84;5052444;28;20051;-35
2021/09/28 07:32:03;;;;;;;13.67;3.13;;;;;;;11.47;86.97;102310.22;5052999;28;20255;-35
2021/09/28 07:34:31;;;;;;;13.48;3.25;;;;;;;11.60;87.27;102318.38;5052572;28;20027;-35
2021/09/28 07:36:57;;;;;;;17.50;3.45;;;;;;;11.63;87.09;102328.00;5052321;28;20021;-35
2021/09/28 07:39:22;;;;;;;12.07;3.05;;;;;;;11.67;86.56;102315.72;5052289;28;20021;-35
2021/09/28 07:41:48;;;;;;;12.98;3.17;;;;;;;11.74;86.53;102319.28;5053055;28;20053;-35
2021/09/28 07:44:13;;;;;;;15.20;3.23;;;;;;;11.81;87.13;102317.44;5053231;28;20025;-35
2021/09/28 07:46:38;;;;;;;11.67;3.10;;;;;;;11.83;86.15;102313.50;5056946;28;20060;-35
2021/09/28 07:49:04;;;;;;;11.70;3.40;;;;;;;11.97;85.85;102313.56;5057099;28;20389;-35
2021/09/28 07:51:29;;;;;;;11.33;4.10;;;;;;;11.85;85.75;102280.78;5056806;28;20029;-35
2021/09/28 07:53:55;;;;;;;11.05;3.45;;;;;;;12.14;85.09;102316.72;5054716;28;20076;-35
2021/09/28 07:56:21;;;;;;;11.38;3.20;;;;;;;12.21;84.76;102326.53;5056808;28;20112;-35
2021/09/28 07:58:47;;;;;;;9.07;2.90;;;;;;;12.25;84.97;102318.81;5056362;28;20032;-35
2021/09/28 08:01:12;;;;;;;12.77;3.33;;;;;;;12.30;85.14;102327.19;5056646;28;20056;-35
2021/09/28 08:03:38;;;;;;;9.30;3.03;;;;;;;12.36;84.92;102320.94;5055825;28;20385;-35
2021/09/28 08:06:03;;;;;;;12.32;3.17;;;;;;;12.31;85.26;102301.72;5056269;28;20036;-35
2021/09/28 08:08:29;;;;;;;14.18;3.13;;;;;;;12.50;84.80;102322.63;5056392;28;20407;-35
2021/09/28 08:10:55;;;;;;;9.93;3.33;;;;;;;12.49;84.27;102307.38;5055114;28;20119;-35
2021/09/28 08:13:21;;;;;;;9.50;2.92;;;;;;;12.64;84.36;102320.75;5056562;28;20024;-35
2021/09/28 08:15:48;;;;;;;13.25;3.25;;;;;;;12.72;84.28;102325.94;5056336;28;20038;-35
2021/09/28 08:18:14;;;;;;;7.85;2.70;;;;;;;12.83;83.66;102332.63;5056125;28;20457;-35
2021/09/28 08:20:41;;;;;;;10.95;3.35;;;;;;;12.89;83.39;102323.66;5055945;28;20338;-35
2021/09/28 08:23:06;;;;;;;11.68;3.15;;;;;;;12.94;83.04;102323.84;5055934;28;20453;-35
2021/09/28 08:30:56;;;;;;;14.52;3.38;;;;;;;13.15;82.96;102322.78;5055978;28;20052;-35
2021/09/28 08:33:21;;;;;;;12.07;3.97;;;;;;;13.21;82.98;102326.53;5056166;28;20438;-35
2021/09/28 08:35:47;;;;;;;10.20;3.43;;;;;;;13.26;82.24;102324.84;5055860;28;20374;-35
2021/09/28 08:38:14;;;;;;;17.20;4.30;;;;;;;13.32;82.86;102323.16;5055327;28;20051;-35
2021/09/28 08:40:40;;;;;;;11.55;3.35;;;;;;;13.31;82.51;102325.06;5055615;28;20436;-35
2021/09/28 08:43:05;;;;;;;12.13;3.73;;;;;;;13.37;82.64;102321.50;5055496;28;20099;-35
2021/09/28 08:45:30;;;;;;;14.57;3.40;;;;;;;13.49;81.72;102315.41;5055633;28;20287;-35
2021/09/28 08:47:56;;;;;;;12.88;3.90;;;;;;;13.47;82.07;102306.59;5055486;28;20028;-35
2021/09/28 08:50:22;;;;;;;11.93;3.87;;;;;;;13.60;81.36;102312.84;5055350;28;20028;-35
2021/09/28 08:52:50;;;;;;;13.00;4.15;;;;;;;13.73;81.04;102322.00;5055338;28;20262;-35
2021/09/28 08:55:15;;;;;;;14.13;3.63;;;;;;;13.86;80.62;102316.50;5055083;28;20031;-35
2021/09/28 08:57:42;;;;;;;10.52;3.30;;;;;;;13.91;80.47;102316.69;5055532;28;20099;-35
2021/09/28 09:00:28;;;;;;;13.57;3.13;;;;;;;14.02;81.05;102320.59;5055370;28;20357;-35
2021/09/28 09:02:53;;;;;;;11.90;3.97;;;;;;;14.13;80.04;102317.16;5054841;28;20079;-35
2021/09/28 09:05:19;;;;;;;10.82;3.60;;;;;;;14.28;80.71;102317.69;5055309;28;20376;-35
2021/09/28 09:08:04;;;;;;;9.75;3.28;;;;;;;14.29;80.33;102294.88;5055030;28;20017;-35
2021/09/28 09:10:35;;;;;;;10.45;3.58;;;;;;;14.38;79.59;102301.72;5055187;28;20025;-35
2021/09/28 09:13:02;;;;;;;8.35;3.08;;;;;;;14.42;78.67;102299.38;5055108;28;20066;-35
2021/09/28 09:15:35;;;;;;;16.15;3.42;;;;;;;14.60;79.65;102317.72;5055000;28;20074;-35
2021/09/28 09:18:06;;;;;;;10.80;3.25;;;;;;;14.71;78.96;102314.25;5055315;28;20088;-35
2021/09/28 09:20:37;;;;;;;9.95;3.42;;;;;;;14.82;79.17;102308.06;5055230;28;20049;-35
2021/09/28 09:23:12;;;;;;;12.15;3.50;;;;;;;14.96;78.05;102316.97;5055467;28;20028;-35
2021/09/28 09:25:38;;;;;;;13.88;3.50;;;;;;;14.97;77.57;102302.28;5055420;28;20028;-35
2021/09/28 09:28:31;;;;;;;9.68;3.00;;;;;;;15.18;77.75;102306.47;5055524;28;20074;-35
2021/09/28 09:31:29;;;;;;;12.48;3.88;;;;;;;15.31;77.08;102308.22;5054887;28;20016;-35
2021/09/28 09:34:17;;;;;;;11.55;3.17;;;;;;;15.40;76.74;102306.84;5055066;28;20021;-35
2021/09/28 09:36:58;;;;;;;12.70;3.40;;;;;;;15.46;76.92;102292.31;5055281;28;20049;-35
2021/09/28 09:39:26;;;;;;;13.57;2.72;;;;;;;15.54;75.87;102286.53;5054421;28;20056;-35
2021/09/28 09:42:06;;;;;;;12.18;4.07;;;;;;;15.65;75.83;102280.34;5054280;28;20028;-35
2021/09/28 09:44:32;;;;;;;10.52;2.60;;;;;;;15.81;75.14;102283.50;5054572;28;20017;-35
2021/09/28 09:47:00;;;;;;;15.95;2.95;;;;;;;15.80;74.09;102290.00;5054247;28;20087;-35
2021/09/28 09:49:30;;;;;;;9.90;2.60;;;;;;;15.83;73.97;102281.38;5054420;28;20021;-35
2021/09/28 09:52:03;;;;;;;10.45;3.15;;;;;;;15.89;73.76;102288.63;5054570;28;20039;-35
2021/09/28 09:54:35;;;;;;;14.73;2.63;;;;;;;15.93;72.45;102287.09;5054507;28;20434;-35
2021/09/28 09:57:05;;;;;;;10.55;2.60;;;;;;;16.00;72.48;102287.00;5053805;28;20021;-35
2021/09/28 09:59:30;;;;;;;10.27;2.47;;;;;;;16.04;72.68;102283.56;5053754;28;20017;-35
2021/09/28 10:01:56;;;;;;;14.25;2.22;;;;;;;16.14;72.01;102275.66;5054268;28;20021;-35
2021/09/28 10:04:22;;;;;;;10.40;2.33;;;;;;;16.24;71.17;102286.00;5054024;28;20025;-35
2021/09/28 10:06:48;;;;;;;13.70;2.30;;;;;;;16.32;72.15;102277.50;5053881;28;20691;-35
2021/09/28 10:09:18;;;;;;;;;;;;;;;16.55;73.96;102282.16;5053389;28;20025;-35
2021/09/28 10:11:44;;;;;;;13.07;2.78;;;;;;;16.56;71.50;102272.88;5054606;28;19950;-35
2021/09/28 10:14:38;;;;;;;11.80;2.13;;;;;;;16.73;70.84;102279.31;5053836;28;20419;-35
2021/09/28 10:17:29;;;;;;;14.00;2.53;;;;;;;16.81;71.04;102277.31;5053681;28;20388;-35
2021/09/28 10:20:00;;;;;;;12.48;2.50;;;;;;;16.74;69.99;102261.06;5054114;28;20119;-35
2021/09/28 10:22:54;;;;;;;14.43;3.22;;;;;;;16.97;71.14;102263.75;5053833;28;20025;-35
2021/09/28 10:25:23;;;;;;;15.88;3.72;;;;;;;17.12;68.49;102260.53;5054020;28;20025;-35
2021/09/28 10:27:54;;;;;;;9.07;2.08;;;;;;;17.15;67.13;102259.22;5054194;28;20051;-35
2021/09/28 10:30:31;;;;;;;12.52;2.70;;;;;;;17.17;66.74;102262.53;5053604;28;20028;-35
2021/09/28 10:33:17;;;;;;;11.68;2.50;;;;;;;17.00;66.19;102237.88;5053529;28;20041;-35
2021/09/28 10:36:16;;;;;;;8.83;2.20;;;;;;;17.27;66.21;102256.47;5046049;28;20032;-35
2021/09/28 10:38:44;;;;;;;13.05;2.25;;;;;;;17.08;65.53;102259.38;5011432;28;20493;-35
2021/09/28 10:41:28;;;;;;;10.88;2.30;;;;;;;17.02;66.54;102243.91;5011667;28;20120;-35
2021/09/28 10:43:54;;;;;;;12.40;2.17;;;;;;;16.95;64.07;102245.97;5011745;28;20483;-35
2021/09/28 10:46:38;;;;;;;9.13;2.97;;;;;;;17.16;66.46;102234.38;5011300;28;20034;-35
2021/09/28 10:49:29;;;;;;;9.60;2.33;;;;;;;17.40;65.60;102246.09;5011573;28;20497;-35
2021/09/28 10:52:19;;;;;;;12.35;2.25;;;;;;;17.58;65.16;102242.34;5011641;28;20485;-35
2021/09/28 10:55:06;;;;;;;10.65;2.35;;;;;;;17.65;62.69;102234.81;5011150;28;20068;-35
2021/09/28 10:58:01;;;;;;;15.13;2.35;;;;;;;17.63;63.41;102231.50;5011553;28;20022;-35
2021/09/28 11:00:29;;;;;;;9.30;2.15;;;;;;;17.72;62.38;102221.81;5011394;28;20030;-35
2021/09/28 11:02:57;;;;;;;13.60;2.70;;;;;;;17.67;62.59;102204.50;5010911;28;20025;-35
2021/09/28 11:05:28;;;;;;;9.05;1.98;;;;;;;17.83;62.30;102225.59;5011305;28;20048;-35
2021/09/28 11:07:54;;;;;;;9.50;1.80;;;;;;;17.84;61.97;102207.28;5011436;28;20037;-35
2021/09/28 11:10:19;;;;;;;11.52;1.88;;;;;;;17.61;61.71;102209.00;5011087;28;20505;-35
2021/09/28 11:12:44;;;;;;;;;;;;;;;17.83;63.66;102213.84;5011255;28;20120;-35
2021/09/28 11:15:10;;;;;;;9.07;2.08;;;;;;;17.86;63.38;102210.59;5047450;28;19952;-35
2021/09/28 11:17:35;;;;;;;;;;;;;;;18.07;62.20;102204.41;5053850;28;20033;-35
2021/09/28 11:20:01;;;;;;;11.30;2.00;;;;;;;17.92;59.58;102195.94;5052454;28;19913;-35
2021/09/28 11:22:27;;;;;;;9.85;1.92;;;;;;;17.90;58.68;102193.44;5052474;28;20032;-35
2021/09/28 11:24:52;;;;;;;7.80;1.60;;;;;;;17.92;58.96;102185.81;5053336;28;20342;-35
2021/09/28 11:27:18;;;;;;;11.55;2.00;;;;;;;18.14;59.08;102190.53;5053051;28;20041;-35
2021/09/28 11:29:44;;;;;;;;;;;;;;;18.40;59.14;102194.53;5053448;28;20016;-35